createdAt,value
2019-05-12T00:00:48.447Z,120.33
2019-05-12T00:03:18.863Z,119.47
2019-05-12T00:05:48.720Z,119.70
2019-05-12T00:08:18.977Z,121.87
2019-05-12T00:10:48.690Z,121.10
2019-05-12T00:13:19.121Z,120.73
2019-05-12T00:15:48.906Z,126.77
2019-05-12T00:18:18.705Z,121.33
2019-05-12T00:20:48.384Z,119.50
2019-05-12T00:23:26.650Z,119.40
2019-05-12T00:25:49.536Z,124.03
2019-05-12T00:28:19.356Z,124.43
2019-05-12T00:30:50.674Z,127.13
2019-05-12T00:33:20.520Z,121.30
2019-05-12T00:35:50.225Z,122.87
2019-05-12T00:38:19.924Z,122.23
2019-05-12T00:40:49.693Z,120.10
2019-05-12T00:43:19.583Z,120.40
2019-05-12T00:45:49.284Z,123.50
2019-05-12T00:48:18.971Z,122.33
2019-05-12T00:50:48.758Z,124.60
2019-05-12T00:53:19.017Z,130.27
2019-05-12T00:55:48.810Z,120.67
2019-05-12T00:58:19.844Z,120.33
2019-05-12T01:00:49.590Z,121.73
2019-05-12T01:03:19.332Z,121.07
2019-05-12T01:05:49.035Z,118.37
2019-05-12T01:08:18.925Z,120.77
2019-05-12T01:10:48.617Z,123.20
2019-05-12T01:13:18.774Z,119.73
2019-05-12T01:15:49.651Z,118.73
2019-05-12T01:18:19.383Z,123.93
2019-05-12T01:20:49.231Z,120.53
2019-05-12T01:23:23.059Z,124.97
2019-05-12T01:25:50.840Z,119.93
2019-05-12T01:28:20.809Z,119.60
2019-05-12T01:30:50.517Z,119.23
2019-05-12T01:33:20.199Z,120.67
2019-05-12T01:35:50.004Z,119.13
2019-05-12T01:38:19.736Z,123.03
2019-05-12T01:40:49.408Z,118.83
2019-05-12T01:43:21.195Z,120.67
2019-05-12T01:45:50.610Z,117.93
2019-05-12T01:48:20.351Z,120.83
2019-05-12T01:50:50.119Z,123.67
2019-05-12T01:53:19.823Z,117.87
2019-05-12T01:55:49.504Z,122.07
2019-05-12T01:58:19.618Z,119.30
2019-05-12T02:00:49.448Z,117.80
2019-05-12T02:03:19.145Z,118.00
2019-05-12T02:05:52.061Z,119.23
2019-05-12T02:08:27.893Z,120.63
2019-05-12T02:11:18.275Z,119.13
2019-05-12T02:13:48.683Z,117.93
2019-05-12T02:16:19.019Z,118.03
2019-05-12T02:18:49.151Z,118.00
2019-05-12T02:21:19.182Z,118.90
2019-05-12T02:23:49.040Z,119.00
2019-05-12T02:26:19.046Z,117.70
2019-05-12T02:28:48.912Z,117.53
2019-05-12T02:31:20.742Z,118.93
2019-05-12T02:33:50.097Z,120.37
2019-05-12T02:36:19.883Z,121.53
2019-05-12T02:38:49.686Z,117.53
2019-05-12T02:41:19.516Z,118.60
2019-05-12T02:43:49.213Z,120.27
2019-05-12T02:46:18.902Z,121.20
2019-05-12T02:48:48.603Z,132.43
2019-05-12T02:51:18.447Z,117.97
2019-05-12T02:53:48.588Z,117.50
2019-05-12T02:56:20.260Z,117.30
2019-05-12T02:58:50.512Z,121.73
2019-05-12T03:01:24.484Z,118.37
2019-05-12T03:03:55.626Z,120.00
2019-05-12T03:06:28.155Z,117.43
2019-05-12T03:09:04.875Z,117.40
2019-05-12T03:11:35.557Z,117.90
2019-05-12T03:14:05.386Z,117.43
2019-05-12T03:16:35.363Z,117.77
2019-05-12T03:19:05.522Z,117.37
2019-05-12T03:21:35.891Z,121.10
2019-05-12T03:24:06.726Z,120.60
2019-05-12T03:26:36.906Z,117.67
2019-05-12T03:29:06.708Z,117.87
2019-05-12T03:31:39.674Z,118.70
2019-05-12T03:34:10.920Z,118.40
2019-05-12T03:36:42.700Z,120.17
2019-05-12T03:39:10.718Z,117.13
2019-05-12T03:41:40.558Z,117.13
2019-05-12T03:44:10.234Z,118.70
2019-05-12T03:46:39.921Z,117.13
2019-05-12T03:49:09.620Z,117.33
2019-05-12T03:51:39.333Z,116.93
2019-05-12T03:54:09.039Z,116.73
2019-05-12T03:56:38.719Z,117.73
2019-05-12T03:59:08.536Z,117.80
2019-05-12T04:01:38.224Z,117.37
2019-05-12T04:04:07.992Z,117.93
2019-05-12T04:06:37.743Z,117.37
2019-05-12T04:09:08.717Z,116.57
2019-05-12T04:11:38.592Z,119.47
2019-05-12T04:14:08.472Z,117.40
2019-05-12T04:16:38.159Z,117.37
2019-05-12T04:19:08.013Z,117.47
2019-05-12T04:21:37.704Z,116.80
2019-05-12T04:24:07.466Z,118.30
2019-05-12T04:26:37.167Z,117.97
2019-05-12T04:29:06.895Z,119.17
2019-05-12T04:31:36.968Z,116.90
2019-05-12T04:34:06.793Z,117.93
2019-05-12T04:36:36.669Z,120.23
2019-05-12T04:39:07.787Z,117.30
2019-05-12T04:41:37.719Z,122.90
2019-05-12T04:44:08.175Z,124.33
2019-05-12T04:46:37.894Z,118.20
2019-05-12T04:49:07.611Z,118.37
2019-05-12T04:51:37.298Z,117.87
2019-05-12T04:54:07.327Z,125.57
2019-05-12T04:56:37.016Z,117.90
2019-05-12T04:59:07.851Z,120.33
2019-05-12T05:01:38.524Z,122.23
2019-05-12T05:04:08.226Z,121.47
2019-05-12T05:06:37.927Z,121.80
2019-05-12T05:09:08.481Z,125.13
2019-05-12T05:11:38.173Z,119.73
2019-05-12T05:14:07.935Z,118.57
2019-05-12T05:16:37.653Z,119.57
2019-05-12T05:19:07.339Z,118.97
2019-05-12T05:21:37.069Z,121.03
2019-05-12T05:24:06.774Z,122.70
2019-05-12T05:26:37.468Z,121.10
2019-05-12T05:29:07.286Z,120.27
2019-05-12T05:31:36.980Z,119.23
2019-05-12T05:34:06.685Z,119.77
2019-05-12T05:36:36.451Z,122.90
2019-05-12T05:39:07.310Z,119.27
2019-05-12T05:41:40.079Z,122.30
2019-05-12T05:44:08.458Z,119.83
2019-05-12T05:46:44.448Z,126.93
2019-05-12T05:49:09.637Z,142.50
2019-05-12T05:51:44.403Z,142.70
2019-05-12T05:54:10.767Z,137.27
2019-05-12T05:56:48.456Z,129.30
2019-05-12T05:59:14.941Z,126.57
2019-05-12T06:01:49.508Z,132.30
2019-05-12T06:04:14.772Z,121.57
2019-05-12T06:06:50.761Z,124.37
2019-05-12T06:09:15.840Z,132.30
2019-05-12T06:11:45.528Z,124.17
2019-05-12T06:14:16.234Z,122.87
2019-05-12T06:16:46.078Z,120.93
2019-05-12T06:19:15.844Z,118.97
2019-05-12T06:21:45.561Z,125.33
2019-05-12T06:24:19.840Z,125.70
2019-05-12T06:26:56.669Z,120.20
2019-05-12T06:29:20.415Z,120.07
2019-05-12T06:31:49.514Z,121.67
2019-05-12T06:34:21.031Z,122.83
2019-05-12T06:36:50.602Z,119.27
2019-05-12T06:39:20.862Z,125.07
2019-05-12T06:41:50.653Z,119.97
2019-05-12T06:44:20.327Z,121.13
2019-05-12T06:46:53.455Z,120.30
2019-05-12T06:49:21.439Z,120.10
2019-05-12T06:51:55.314Z,120.83
2019-05-12T06:54:24.626Z,120.27
2019-05-12T06:56:57.897Z,123.77
2019-05-12T06:59:25.423Z,122.80
2019-05-12T07:02:00.305Z,120.53
2019-05-12T07:04:26.610Z,122.73
2019-05-12T07:07:00.586Z,121.73
2019-05-12T07:09:29.476Z,121.33
2019-05-12T07:12:03.742Z,121.50
2019-05-12T07:14:30.552Z,121.50
2019-05-12T07:17:06.192Z,123.13
2019-05-12T07:19:36.060Z,123.73
2019-05-12T07:22:18.077Z,125.33
2019-05-12T07:24:40.966Z,123.03
2019-05-12T07:27:09.289Z,123.47
2019-05-12T07:29:39.194Z,122.37
2019-05-12T07:32:16.377Z,124.30
2019-05-12T07:34:40.286Z,126.03
2019-05-12T07:37:12.191Z,124.10
2019-05-12T07:39:47.246Z,125.43
2019-05-12T07:42:14.871Z,125.83
2019-05-12T07:44:46.165Z,140.00
2019-05-12T07:47:19.339Z,125.23
2019-05-12T07:49:47.374Z,126.67
2019-05-12T07:52:17.080Z,131.17
2019-05-12T07:54:46.809Z,134.53
2019-05-12T07:57:17.649Z,132.50
2019-05-12T07:59:47.444Z,133.10
2019-05-12T08:02:17.144Z,132.27
2019-05-12T08:04:46.828Z,126.33
2019-05-12T08:07:19.799Z,131.87
2019-05-12T08:09:47.963Z,125.83
2019-05-12T08:12:20.926Z,127.10
2019-05-12T08:14:49.995Z,130.30
2019-05-12T08:17:19.854Z,137.00
2019-05-12T08:19:49.554Z,133.93
2019-05-12T08:22:25.037Z,134.07
2019-05-12T08:24:50.765Z,132.33
2019-05-12T08:27:20.520Z,134.40
2019-05-12T08:29:54.393Z,132.27
2019-05-12T08:32:23.481Z,131.43
2019-05-12T08:34:54.146Z,131.70
2019-05-12T08:37:24.446Z,134.60
2019-05-12T08:40:03.352Z,131.40
2019-05-12T08:42:25.599Z,128.57
2019-05-12T08:44:55.297Z,129.53
2019-05-12T08:47:28.881Z,129.83
2019-05-12T08:49:58.680Z,134.63
2019-05-12T08:52:30.641Z,135.33
2019-05-12T08:54:59.282Z,134.83
2019-05-12T08:57:34.935Z,132.03
2019-05-12T09:00:02.707Z,137.27
2019-05-12T09:02:34.281Z,131.70
2019-05-12T09:05:04.711Z,136.23
2019-05-12T09:07:39.589Z,134.60
2019-05-12T09:10:07.983Z,134.03
2019-05-12T09:12:37.829Z,142.70
2019-05-12T09:15:08.570Z,136.67
2019-05-12T09:17:49.208Z,132.33
2019-05-12T09:20:10.075Z,133.03
2019-05-12T09:22:39.792Z,137.97
2019-05-12T09:25:09.627Z,136.07
2019-05-12T09:27:44.360Z,150.23
2019-05-12T09:30:11.508Z,135.93
2019-05-12T09:32:48.614Z,139.60
2019-05-12T09:35:14.413Z,137.67
2019-05-12T09:37:44.301Z,144.27
2019-05-12T09:44:01.767Z,134.63
2019-05-12T09:46:34.276Z,136.17
2019-05-12T09:49:04.191Z,137.47
2019-05-12T09:51:41.450Z,140.63
2019-05-12T09:54:05.655Z,138.37
2019-05-12T09:56:35.398Z,135.37
2019-05-12T09:59:17.477Z,136.33
2019-05-12T10:01:39.468Z,148.57
2019-05-12T10:04:14.957Z,136.07
2019-05-12T10:06:39.533Z,137.00
2019-05-12T10:09:15.377Z,138.17
2019-05-12T10:11:40.690Z,153.83
2019-05-12T10:14:10.965Z,138.97
2019-05-12T10:16:45.641Z,136.50
2019-05-12T10:19:14.254Z,136.30
2019-05-12T10:21:44.141Z,137.13
2019-05-12T10:24:13.989Z,139.83
2019-05-12T10:26:48.928Z,135.47
2019-05-12T10:29:20.318Z,147.27
2019-05-12T10:31:46.545Z,137.33
2019-05-12T10:34:23.963Z,134.43
2019-05-12T10:36:54.179Z,137.20
2019-05-12T10:39:24.547Z,136.37
2019-05-12T10:41:54.772Z,137.90
2019-05-12T10:44:30.059Z,140.77
2019-05-12T10:46:59.199Z,135.47
2019-05-12T10:49:28.973Z,135.13
2019-05-12T10:51:58.726Z,135.00
2019-05-12T10:54:28.417Z,138.23
2019-05-12T10:56:58.256Z,135.13
2019-05-12T10:59:32.845Z,142.47
2019-05-12T11:01:59.408Z,141.60
2019-05-12T11:04:35.569Z,136.93
2019-05-12T11:07:00.586Z,142.10
2019-05-12T11:09:33.871Z,139.50
2019-05-12T11:12:03.365Z,144.00
2019-05-12T11:14:34.179Z,142.63
2019-05-12T11:17:07.675Z,142.13
2019-05-12T11:19:40.983Z,137.40
2019-05-12T11:22:08.931Z,150.87
2019-05-12T11:24:38.704Z,137.07
2019-05-12T11:27:08.537Z,139.30
2019-05-12T11:29:46.158Z,140.80
2019-05-12T11:32:09.641Z,137.50
2019-05-12T11:34:39.323Z,137.13
2019-05-12T11:37:09.001Z,136.57
2019-05-12T11:39:44.329Z,136.73
2019-05-12T11:42:10.089Z,136.47
2019-05-12T11:44:39.828Z,139.00
2019-05-12T11:47:16.926Z,136.23
2019-05-12T11:49:41.123Z,134.77
2019-05-12T11:52:16.739Z,140.03
2019-05-12T11:54:47.229Z,143.07
2019-05-12T11:57:14.635Z,140.77
2019-05-12T11:59:58.102Z,140.43
2019-05-12T12:02:20.227Z,138.60
2019-05-12T12:04:47.329Z,138.47
2019-05-12T12:07:17.318Z,134.93
2019-05-12T12:09:49.500Z,137.10
2019-05-12T12:12:18.545Z,134.43
2019-05-12T12:14:50.388Z,141.10
2019-05-12T12:17:22.848Z,135.27
2019-05-12T12:19:51.133Z,134.67
2019-05-12T12:22:26.440Z,133.27
2019-05-12T12:24:54.269Z,133.80
2019-05-12T12:27:23.803Z,139.67
2019-05-12T12:29:54.367Z,133.83
2019-05-12T12:32:26.493Z,132.67
2019-05-12T12:34:56.193Z,134.07
2019-05-12T12:37:25.985Z,136.47
2019-05-12T12:39:56.644Z,133.33
2019-05-12T12:42:30.325Z,135.13
2019-05-12T12:44:58.712Z,133.90
2019-05-12T12:47:29.748Z,132.60
2019-05-12T12:49:59.654Z,133.43
2019-05-12T12:52:29.355Z,134.17
2019-05-12T12:55:03.940Z,134.73
2019-05-12T12:57:30.463Z,136.40
2019-05-12T13:00:00.293Z,139.00
2019-05-12T13:02:30.072Z,133.57
2019-05-12T13:04:59.811Z,134.47
2019-05-12T13:07:29.590Z,136.70
2019-05-12T13:10:04.570Z,135.10
2019-05-12T13:12:32.910Z,133.67
2019-05-12T13:15:03.867Z,134.97
2019-05-12T13:17:36.384Z,136.50
2019-05-12T13:20:06.083Z,133.63
2019-05-12T13:22:35.762Z,133.00
2019-05-12T13:25:08.557Z,133.57
2019-05-12T13:27:37.214Z,134.53
2019-05-12T13:30:18.632Z,136.70
2019-05-12T13:32:38.850Z,139.10
2019-05-12T13:35:15.424Z,132.87
2019-05-12T13:37:43.284Z,132.23
2019-05-12T13:40:12.985Z,130.63
2019-05-12T13:42:43.750Z,130.53
2019-05-12T13:45:16.338Z,131.90
2019-05-12T13:47:45.462Z,130.83
2019-05-12T13:50:21.790Z,134.33
2019-05-12T13:52:47.985Z,129.80
2019-05-12T13:55:17.955Z,131.37
2019-05-12T13:57:56.159Z,130.17
2019-05-12T14:00:19.471Z,129.57
2019-05-12T14:02:55.492Z,133.33
2019-05-12T14:08:19.440Z,131.83
2019-05-12T14:10:56.621Z,130.20
2019-05-12T14:13:24.459Z,130.57
2019-05-12T14:15:54.958Z,129.93
2019-05-12T14:18:24.688Z,130.10
2019-05-12T14:20:59.137Z,130.93
2019-05-12T14:23:26.125Z,131.17
2019-05-12T14:25:55.890Z,134.03
2019-05-12T14:28:25.613Z,130.80
2019-05-12T14:30:55.399Z,130.53
2019-05-12T14:33:29.903Z,131.30
2019-05-12T14:35:56.559Z,131.37
2019-05-12T14:38:29.701Z,130.27
2019-05-12T14:41:01.285Z,133.00
2019-05-12T14:43:29.094Z,131.50
2019-05-12T14:46:00.178Z,131.03
2019-05-12T14:48:30.487Z,131.53
2019-05-12T14:51:00.236Z,132.30
2019-05-12T14:53:32.907Z,136.57
2019-05-12T14:56:03.729Z,136.80
2019-05-12T14:58:33.865Z,133.27
2019-05-12T15:01:04.050Z,133.10
2019-05-12T15:03:34.341Z,132.87
2019-05-12T15:06:07.418Z,137.27
2019-05-12T15:08:39.726Z,135.90
2019-05-12T15:11:07.207Z,135.40
2019-05-12T15:13:36.908Z,138.13
2019-05-12T15:16:06.711Z,134.37
2019-05-12T15:18:39.790Z,134.40
2019-05-12T15:21:07.893Z,134.13
2019-05-12T15:23:37.634Z,133.83
2019-05-12T15:26:09.532Z,134.20
2019-05-12T15:28:38.877Z,134.60
2019-05-12T15:31:08.675Z,133.13
2019-05-12T15:33:38.393Z,132.73
2019-05-12T15:36:08.342Z,133.93
2019-05-12T15:38:38.072Z,134.83
2019-05-12T15:41:10.676Z,132.57
2019-05-12T15:43:44.415Z,134.33
2019-05-12T15:46:10.694Z,136.43
2019-05-12T15:48:40.462Z,133.57
2019-05-12T15:51:10.117Z,132.43
2019-05-12T15:53:39.822Z,136.77
2019-05-12T15:56:14.776Z,133.07
2019-05-12T15:58:40.918Z,133.90
2019-05-12T16:01:10.788Z,134.07
2019-05-12T16:03:40.536Z,133.40
2019-05-12T16:06:12.469Z,132.93
2019-05-12T16:08:41.697Z,135.10
2019-05-12T16:11:13.815Z,136.23
2019-05-12T16:13:44.997Z,133.10
2019-05-12T16:16:14.576Z,132.57
2019-05-12T16:18:48.816Z,136.27
2019-05-12T16:21:15.900Z,134.13
2019-05-12T16:23:45.583Z,132.77
2019-05-12T16:26:15.600Z,132.90
2019-05-12T16:28:45.298Z,136.90
2019-05-12T16:31:14.965Z,131.13
2019-05-12T16:33:44.635Z,135.03
2019-05-12T16:36:14.734Z,132.20
2019-05-12T16:38:44.687Z,133.17
2019-05-12T16:41:14.650Z,133.13
2019-05-12T16:43:44.342Z,137.53
2019-05-12T16:46:14.427Z,133.70
2019-05-12T16:48:48.276Z,134.40
2019-05-12T16:51:15.739Z,134.37
2019-05-12T16:53:46.459Z,133.07
2019-05-12T16:56:19.903Z,134.93
2019-05-12T16:58:47.644Z,133.70
2019-05-12T17:01:19.443Z,133.87
2019-05-12T17:03:48.873Z,133.77
2019-05-12T17:06:20.452Z,133.80
2019-05-12T17:08:50.178Z,133.37
2019-05-12T17:11:27.303Z,135.97
2019-05-12T17:13:57.091Z,134.03
2019-05-12T17:16:22.891Z,132.63
2019-05-12T17:18:53.333Z,140.47
2019-05-12T17:21:24.654Z,134.30
2019-05-12T17:23:54.558Z,134.57
2019-05-12T17:26:24.445Z,135.77
2019-05-12T17:28:54.175Z,134.07
2019-05-12T17:31:23.875Z,132.97
2019-05-12T17:33:54.364Z,133.03
2019-05-12T17:36:24.303Z,132.77
2019-05-12T17:38:56.278Z,134.50
2019-05-12T17:41:25.684Z,132.37
2019-05-12T17:44:01.006Z,133.33
2019-05-12T17:46:26.827Z,133.77
2019-05-12T17:48:56.564Z,139.60
2019-05-12T17:51:30.757Z,134.10
2019-05-12T17:53:57.608Z,135.87
2019-05-12T17:56:34.008Z,135.03
2019-05-12T17:58:58.681Z,143.13
2019-05-12T18:01:31.174Z,136.37
2019-05-12T18:04:00.059Z,136.87
2019-05-12T18:06:31.057Z,137.80
2019-05-12T18:09:00.920Z,132.73
2019-05-12T18:11:33.996Z,132.73
2019-05-12T18:14:06.799Z,133.70
2019-05-12T18:16:35.620Z,133.37
2019-05-12T18:19:09.034Z,134.40
2019-05-12T18:21:36.806Z,136.33
2019-05-12T18:24:11.138Z,131.70
2019-05-12T18:26:38.246Z,137.87
2019-05-12T18:29:08.015Z,132.40
2019-05-12T18:31:37.805Z,131.83
2019-05-12T18:34:07.568Z,136.60
2019-05-12T18:36:37.247Z,136.23
2019-05-12T18:39:11.481Z,135.67
2019-05-12T18:41:39.539Z,132.20
2019-05-12T18:44:09.308Z,130.93
2019-05-12T18:46:44.838Z,136.10
2019-05-12T18:49:12.691Z,132.03
2019-05-12T18:51:43.522Z,130.47
2019-05-12T18:54:15.033Z,129.70
2019-05-12T18:56:44.964Z,131.03
2019-05-12T18:59:16.300Z,131.80
2019-05-12T19:01:46.420Z,132.57
2019-05-12T19:04:16.136Z,131.50
2019-05-12T19:06:46.953Z,130.13
2019-05-12T19:09:16.856Z,129.90
2019-05-12T19:11:46.981Z,134.10
2019-05-12T19:14:16.854Z,130.30
2019-05-12T19:16:46.725Z,131.77
2019-05-12T19:19:20.027Z,132.63
2019-05-12T19:21:58.839Z,129.07
2019-05-12T19:24:20.239Z,131.87
2019-05-12T19:26:50.084Z,130.63
2019-05-12T19:29:19.884Z,130.33
2019-05-12T19:31:52.699Z,129.13
2019-05-12T19:34:25.245Z,128.53
2019-05-12T19:36:52.373Z,129.40
2019-05-12T19:39:25.148Z,130.47
2019-05-12T19:41:54.309Z,133.87
2019-05-12T19:44:26.496Z,130.30
2019-05-12T19:46:55.787Z,128.83
2019-05-12T19:49:28.154Z,133.40
2019-05-12T19:51:56.992Z,129.07
2019-05-12T19:54:30.131Z,129.10
2019-05-12T19:56:58.267Z,131.93
2019-05-12T19:59:28.278Z,127.57
2019-05-12T20:01:58.073Z,136.10
2019-05-12T20:04:33.336Z,137.57
2019-05-12T20:06:59.348Z,135.30
2019-05-12T20:09:29.194Z,128.57
2019-05-12T20:12:01.350Z,128.40
2019-05-12T20:14:30.402Z,132.17
2019-05-12T20:17:00.242Z,128.83
2019-05-12T20:19:29.977Z,129.50
2019-05-12T20:21:59.879Z,126.47
2019-05-12T20:24:29.679Z,127.03
2019-05-12T20:26:59.414Z,128.13
2019-05-12T20:29:33.443Z,126.33
2019-05-12T20:32:00.681Z,133.60
2019-05-12T20:34:44.089Z,125.87
2019-05-12T20:37:06.001Z,128.37
2019-05-12T20:39:33.283Z,125.33
2019-05-12T20:42:05.169Z,126.23
2019-05-12T20:44:34.547Z,126.60
2019-05-12T20:47:06.330Z,127.60
2019-05-12T20:49:36.162Z,127.10
2019-05-12T20:52:09.408Z,124.13
2019-05-12T20:54:37.371Z,127.07
2019-05-12T20:57:08.027Z,128.53
2019-05-12T20:59:37.986Z,124.10
2019-05-12T21:02:07.897Z,125.20
2019-05-12T21:04:38.090Z,124.13
2019-05-12T21:07:07.859Z,124.70
2019-05-12T21:09:37.583Z,122.63
2019-05-12T21:12:07.315Z,123.57
2019-05-12T21:14:37.024Z,121.87
2019-05-12T21:17:08.939Z,123.37
2019-05-12T21:19:40.142Z,122.57
2019-05-12T21:22:10.916Z,123.73
2019-05-12T21:24:40.664Z,121.30
2019-05-12T21:27:15.879Z,123.47
2019-05-12T21:29:43.748Z,120.67
2019-05-12T21:32:16.699Z,120.57
2019-05-12T21:34:44.794Z,121.47
2019-05-12T21:37:14.660Z,119.93
2019-05-12T21:39:46.864Z,120.50
2019-05-12T21:42:15.738Z,119.97
2019-05-12T21:44:47.112Z,122.97
2019-05-12T21:47:16.928Z,120.27
2019-05-12T21:49:48.612Z,120.03
2019-05-12T21:52:18.115Z,120.87
2019-05-12T21:54:47.797Z,127.30
2019-05-12T21:57:19.152Z,123.37
2019-05-12T21:59:49.015Z,120.13
2019-05-12T22:02:19.632Z,127.30
2019-05-12T22:04:50.262Z,137.23
2019-05-12T22:07:20.048Z,123.43
2019-05-12T22:09:49.716Z,120.97
2019-05-12T22:12:23.345Z,118.30
2019-05-12T22:14:50.947Z,123.57
2019-05-12T22:17:20.651Z,121.37
2019-05-12T22:19:50.334Z,118.13
2019-05-12T22:22:25.778Z,118.03
2019-05-12T22:24:53.606Z,121.90
2019-05-12T22:27:27.012Z,118.43
2019-05-12T22:29:54.304Z,119.93
2019-05-12T22:32:25.441Z,117.67
2019-05-12T22:34:55.355Z,133.80
2019-05-12T22:37:29.386Z,120.63
2019-05-12T22:39:56.451Z,118.37
2019-05-12T22:42:26.152Z,117.50
2019-05-12T22:45:01.588Z,118.00
2019-05-12T22:47:27.260Z,121.87
2019-05-12T22:49:57.243Z,118.00
2019-05-12T22:52:27.049Z,120.80
2019-05-12T22:54:56.743Z,121.10
2019-05-12T22:57:32.576Z,117.57
2019-05-12T22:59:58.829Z,116.70
2019-05-12T23:02:30.095Z,117.13
2019-05-12T23:05:00.081Z,117.57
2019-05-12T23:07:30.010Z,118.67
2019-05-12T23:10:00.448Z,116.77
2019-05-12T23:12:31.238Z,118.93
2019-05-12T23:15:02.983Z,118.73
2019-05-12T23:17:33.841Z,116.23
2019-05-12T23:20:04.797Z,115.27
2019-05-12T23:22:36.818Z,116.20
2019-05-12T23:25:11.436Z,116.70
2019-05-12T23:27:38.401Z,118.03
2019-05-12T23:30:11.278Z,117.83
2019-05-12T23:32:42.900Z,117.57
2019-05-12T23:35:14.265Z,116.17
2019-05-12T23:37:44.123Z,117.67
2019-05-12T23:40:16.521Z,117.73
2019-05-12T23:42:45.623Z,116.50
2019-05-12T23:45:15.560Z,124.63
2019-05-12T23:47:45.252Z,118.50
2019-05-12T23:50:15.381Z,115.77
2019-05-12T23:52:45.180Z,117.23
2019-05-12T23:55:14.971Z,123.90
2019-05-12T23:57:44.757Z,116.40
